Time;durP1;ratioP1;P1;durP2;ratioP2;P2;SDS_P1;SDS_P2;PMS_P1;PMS_P2;Temp;Humidity;BMP_temperature;BMP_pressure;BME280_temperature;BME280_humidity;BME280_pressure;Samples;Min_cycle;Max_cycle;Signal;HPM_P1;HPM_P2
2023/10/17 00:01:50;;;;;;;22.42;10.00;;;7.80;99.90;;;;;;5053329;28;20021;-86
2023/10/17 00:06:50;;;;;;;20.48;11.10;;;7.80;99.90;;;;;;5050679;28;20052;-85
2023/10/17 00:09:21;;;;;;;20.33;11.23;;;7.80;99.90;;;;;;5053445;28;20476;-84
2023/10/17 00:14:23;;;;;;;;;;;7.80;99.90;;;;;;5051411;28;20487;-84
2023/10/17 00:16:50;;;;;;;20.38;11.52;;;7.80;99.90;;;;;;5052876;28;19995;-84
2023/10/17 00:19:18;;;;;;;23.08;12.45;;;7.80;99.90;;;;;;5053377;28;20490;-87
2023/10/17 00:21:44;;;;;;;20.10;13.05;;;7.80;99.90;;;;;;5053370;28;20472;-79
2023/10/17 00:24:10;;;;;;;20.38;12.80;;;7.80;99.90;;;;;;5052491;28;20117;-82
2023/10/17 00:26:39;;;;;;;23.73;13.68;;;7.90;99.90;;;;;;5046509;28;20115;-86
2023/10/17 00:29:10;;;;;;;23.00;12.80;;;7.90;99.90;;;;;;5080400;28;20047;-85
2023/10/17 00:31:37;;;;;;;23.08;12.18;;;7.90;99.90;;;;;;5095580;28;20032;-86
2023/10/17 00:34:25;;;;;;;22.50;12.95;;;7.90;99.90;;;;;;5102176;28;20093;-84
2023/10/17 00:36:52;;;;;;;23.15;14.80;;;8.00;99.90;;;;;;5113537;28;20536;-82
2023/10/17 00:39:31;;;;;;;20.75;13.57;;;7.90;99.90;;;;;;5115883;28;20507;-79
2023/10/17 00:44:31;;;;;;;21.10;13.23;;;7.80;99.90;;;;;;5102954;28;20036;-84
2023/10/17 00:47:00;;;;;;;18.35;12.50;;;7.80;99.90;;;;;;5103369;28;20114;-83
2023/10/17 00:49:29;;;;;;;22.98;12.38;;;7.80;99.90;;;;;;5115842;28;20023;-84
2023/10/17 00:52:15;;;;;;;20.17;12.23;;;7.70;99.90;;;;;;5108375;27;20501;-85
2023/10/17 00:54:41;;;;;;;22.10;14.48;;;7.60;99.90;;;;;;5108492;28;20457;-85
2023/10/17 00:57:08;;;;;;;23.88;15.65;;;7.60;99.90;;;;;;5098362;28;20024;-85
2023/10/17 00:59:34;;;;;;;24.02;14.82;;;7.60;99.90;;;;;;5115416;28;20047;-85
2023/10/17 01:02:06;;;;;;;25.60;15.68;;;7.50;99.90;;;;;;5105315;28;20431;-87
2023/10/17 01:04:33;;;;;;;24.02;16.20;;;7.50;99.90;;;;;;5094832;28;20032;-86
2023/10/17 01:07:06;;;;;;;25.20;15.25;;;7.40;99.90;;;;;;5104708;28;20072;-80
2023/10/17 01:09:34;;;;;;;23.52;15.90;;;7.40;99.90;;;;;;5101411;28;20530;-85
2023/10/17 01:12:10;;;;;;;25.08;16.27;;;7.30;99.90;;;;;;5115254;28;20424;-85
2023/10/17 01:14:36;;;;;;;30.27;16.60;;;7.30;99.90;;;;;;5093409;28;20020;-84
2023/10/17 01:17:14;;;;;;;25.58;16.23;;;7.30;99.90;;;;;;5108371;28;20016;-84
2023/10/17 01:19:39;;;;;;;26.20;16.42;;;7.30;99.90;;;;;;5111799;28;20031;-85
2023/10/17 01:22:05;;;;;;;34.78;25.05;;;7.30;99.90;;;;;;5113631;28;20027;-85
2023/10/17 01:24:32;;;;;;;33.78;21.77;;;7.30;99.90;;;;;;5113425;28;20039;-86
2023/10/17 01:27:00;;;;;;;26.02;17.10;;;7.20;99.90;;;;;;5113233;28;20040;-86
2023/10/17 01:29:26;;;;;;;21.48;14.50;;;7.20;99.90;;;;;;5111994;28;20026;-86
2023/10/17 01:31:54;;;;;;;26.90;14.98;;;7.20;99.90;;;;;;5100940;28;20023;-87
2023/10/17 01:34:21;;;;;;;24.70;14.57;;;7.20;99.90;;;;;;5113517;28;20031;-85
2023/10/17 01:36:46;;;;;;;24.15;14.77;;;7.30;99.90;;;;;;5097743;27;20479;-87
2023/10/17 01:39:14;;;;;;;25.25;16.02;;;7.30;99.90;;;;;;5094338;28;20052;-86
2023/10/17 01:41:42;;;;;;;25.92;16.27;;;7.30;99.90;;;;;;5107881;28;20059;-85
2023/10/17 01:44:09;;;;;;;26.48;16.83;;;7.30;99.90;;;;;;5092565;28;20021;-86
2023/10/17 01:46:38;;;;;;;25.67;16.00;;;7.20;99.90;;;;;;5093400;28;20101;-86
2023/10/17 01:49:13;;;;;;;26.13;16.25;;;7.10;99.90;;;;;;5105244;28;20080;-86
2023/10/17 01:51:48;;;;;;;27.33;16.75;;;7.20;99.90;;;;;;5099929;28;20028;-86
2023/10/17 01:54:16;;;;;;;25.83;15.52;;;7.20;99.90;;;;;;5093871;28;20027;-85
2023/10/17 01:56:47;;;;;;;26.80;17.48;;;7.10;99.90;;;;;;5101376;28;20035;-86
2023/10/17 01:59:17;;;;;;;29.25;16.55;;;7.10;99.90;;;;;;5111367;28;20101;-85
2023/10/17 02:01:43;;;;;;;27.95;18.17;;;7.00;99.90;;;;;;5079123;28;20066;-84
2023/10/17 02:04:30;;;;;;;26.88;16.83;;;6.90;99.90;;;;;;5109374;28;20487;-84
2023/10/17 02:06:56;;;;;;;32.40;18.60;;;7.00;99.90;;;;;;5112516;28;20085;-85
2023/10/17 02:11:55;;;;;;;28.85;18.73;;;6.90;99.90;;;;;;5103016;28;20366;-85
2023/10/17 02:14:25;;;;;;;26.63;17.63;;;6.90;99.90;;;;;;5111914;28;20026;-84
2023/10/17 02:16:51;;;;;;;32.40;18.38;;;6.90;99.90;;;;;;5101737;28;20028;-80
2023/10/17 02:19:20;;;;;;;27.42;17.70;;;6.80;99.90;;;;;;5090884;28;20015;-88
2023/10/17 02:21:50;;;;;;;27.98;17.08;;;6.90;99.90;;;;;;5106518;28;20423;-87
2023/10/17 02:24:19;;;;;;;24.08;16.70;;;7.00;99.90;;;;;;5105330;28;20024;-87
2023/10/17 02:27:08;;;;;;;22.05;16.38;;;7.00;99.90;;;;;;5092396;28;20543;-82
2023/10/17 02:29:39;;;;;;;25.05;16.52;;;7.00;99.90;;;;;;5114000;28;20024;-87
2023/10/17 02:32:11;;;;;;;25.92;17.52;;;6.90;99.90;;;;;;5109092;28;20032;-86
2023/10/17 02:34:38;;;;;;;25.42;17.70;;;7.00;99.90;;;;;;5094612;28;20020;-87
2023/10/17 02:37:06;;;;;;;24.20;16.80;;;7.00;99.90;;;;;;5112039;28;20432;-86
2023/10/17 02:39:37;;;;;;;24.35;15.68;;;7.00;99.90;;;;;;5110501;27;20409;-86
2023/10/17 02:42:06;;;;;;;25.67;16.00;;;7.00;99.90;;;;;;5113439;28;20027;-86
2023/10/17 02:44:44;;;;;;;26.50;15.82;;;6.90;99.90;;;;;;5102802;28;20035;-79
2023/10/17 02:47:11;;;;;;;23.90;14.90;;;6.80;99.90;;;;;;5112343;28;20035;-83
2023/10/17 02:49:39;;;;;;;24.13;15.93;;;6.90;99.90;;;;;;5113413;28;20027;-81
2023/10/17 02:52:05;;;;;;;25.63;16.70;;;6.90;99.90;;;;;;5113463;28;20046;-86
2023/10/17 02:54:53;;;;;;;26.98;16.75;;;6.90;99.90;;;;;;5096265;28;20489;-84
2023/10/17 02:57:20;;;;;;;24.60;15.27;;;6.90;99.90;;;;;;5108476;28;20035;-84
2023/10/17 02:59:46;;;;;;;26.20;16.95;;;6.90;99.90;;;;;;5114310;28;20041;-85
2023/10/17 03:02:12;;;;;;;25.98;17.40;;;6.80;99.90;;;;;;5109780;28;20058;-84
2023/10/17 03:04:42;;;;;;;24.90;15.90;;;6.80;99.90;;;;;;5098388;28;20028;-85
2023/10/17 03:07:10;;;;;;;26.10;15.85;;;6.70;99.90;;;;;;5099854;28;20036;-84
2023/10/17 03:09:43;;;;;;;26.98;16.65;;;6.70;99.90;;;;;;5100166;28;20016;-84
2023/10/17 03:12:17;;;;;;;25.95;16.60;;;6.70;99.90;;;;;;5098410;28;20071;-85
2023/10/17 03:17:15;;;;;;;30.17;17.08;;;6.60;99.90;;;;;;5094612;28;20028;-85
2023/10/17 03:19:41;;;;;;;25.65;16.67;;;6.70;99.90;;;;;;5091366;28;20032;-83
2023/10/17 03:22:16;;;;;;;26.88;15.98;;;6.70;99.90;;;;;;5091055;28;20036;-87
2023/10/17 03:24:44;;;;;;;26.33;16.02;;;6.70;99.90;;;;;;5108312;28;20032;-80
2023/10/17 03:30:14;;;;;;;26.40;16.35;;;6.70;99.90;;;;;;5038506;28;20044;-85
2023/10/17 03:35:27;;;;;;;30.58;18.40;;;6.70;99.90;;;;;;5031926;28;20021;-86
2023/10/17 03:37:56;;;;;;;26.25;17.00;;;6.60;99.90;;;;;;5032323;28;20032;-83
2023/10/17 03:40:39;;;;;;;29.52;19.40;;;6.60;99.90;;;;;;5050238;28;20265;-81
2023/10/17 03:43:12;;;;;;;37.47;21.00;;;6.60;99.90;;;;;;5036939;28;20037;-86
2023/10/17 03:45:52;;;;;;;30.98;19.48;;;6.60;99.90;;;;;;5041364;28;20057;-85
2023/10/17 03:48:20;;;;;;;29.38;20.85;;;6.60;99.90;;;;;;5034186;28;20038;-87
2023/10/17 03:53:15;;;;;;;27.17;17.90;;;6.50;99.90;;;;;;5034842;28;20037;-86
2023/10/17 03:55:48;;;;;;;23.63;16.92;;;6.60;99.90;;;;;;5045513;28;20040;-80
2023/10/17 04:00:52;;;;;;;28.70;16.95;;;6.50;99.90;;;;;;5040706;28;20121;-77
2023/10/17 04:08:49;;;;;;;25.38;15.82;;;6.50;99.90;;;;;;5060984;28;20080;-83
2023/10/17 04:13:55;;;;;;;32.05;20.50;;;6.50;99.90;;;;;;5053466;28;20041;-85
2023/10/17 04:19:00;;;;;;;29.45;18.95;;;6.40;99.90;;;;;;5039147;28;20124;-78
2023/10/17 04:21:29;;;;;;;27.30;18.50;;;6.40;99.90;;;;;;5026218;28;20551;-86
2023/10/17 04:24:04;;;;;;;41.72;28.10;;;6.40;99.90;;;;;;5050557;28;20473;-86
2023/10/17 04:26:43;;;;;;;51.95;34.20;;;6.40;99.90;;;;;;5053195;28;20044;-85
2023/10/17 04:29:21;;;;;;;50.33;31.23;;;6.30;99.90;;;;;;5053372;28;20615;-76
2023/10/17 04:31:47;;;;;;;39.45;25.38;;;6.40;99.90;;;;;;5052786;28;20522;-77
2023/10/17 04:34:26;;;;;;;30.08;20.67;;;6.40;99.90;;;;;;5052925;28;20020;-83
2023/10/17 04:36:55;;;;;;;33.90;21.88;;;6.40;99.90;;;;;;5053036;28;20484;-76
2023/10/17 04:44:23;;;;;;;29.50;20.42;;;6.40;99.90;;;;;;5052833;28;20522;-78
2023/10/17 04:46:50;;;;;;;24.92;19.98;;;6.40;99.90;;;;;;5098404;28;20398;-84
2023/10/17 04:49:21;;;;;;;30.52;20.02;;;6.40;99.90;;;;;;5113993;28;20431;-81
2023/10/17 04:51:52;;;;;;;31.67;20.70;;;6.40;99.90;;;;;;5102534;28;20020;-87
2023/10/17 04:57:06;;;;;;;30.50;19.75;;;6.40;99.90;;;;;;5105661;28;20470;-76
2023/10/17 06:18:32;;;;;;;36.45;23.52;;;7.10;99.90;;;;;;5106113;28;20469;-86
2023/10/17 06:34:20;;;;;;;40.42;23.98;;;7.80;99.90;;;;;;5110130;28;20539;-85
2023/10/17 06:36:50;;;;;;;47.47;25.52;;;8.00;99.90;;;;;;5109380;28;20092;-86
2023/10/17 06:39:17;;;;;;;37.53;24.65;;;8.20;99.90;;;;;;5113671;28;20031;-83
2023/10/17 06:41:45;;;;;;;49.05;30.08;;;8.40;99.90;;;;;;5110285;28;20016;-88
2023/10/17 06:44:24;;;;;;;44.42;29.83;;;8.50;99.90;;;;;;5093119;28;20047;-86
2023/10/17 06:46:57;;;;;;;37.60;25.77;;;8.70;99.90;;;;;;5110486;28;20028;-88
2023/10/17 06:54:58;;;;;;;35.38;22.00;;;8.80;99.90;;;;;;5064395;28;20427;-89
2023/10/17 06:57:24;;;;;;;32.35;23.75;;;9.00;99.90;;;;;;5046623;28;20049;-87
2023/10/17 06:59:54;;;;;;;32.33;22.90;;;9.00;99.90;;;;;;5068432;28;20029;-77
2023/10/17 07:02:30;;;;;;;36.88;24.00;;;9.10;99.90;;;;;;5069642;28;20033;-79
2023/10/17 07:05:00;;;;;;;37.00;24.00;;;9.10;99.90;;;;;;5070619;28;20131;-75
2023/10/17 07:07:40;;;;;;;40.35;24.92;;;9.10;99.90;;;;;;5061778;28;20045;-82
2023/10/17 07:13:31;;;;;;;37.08;26.70;;;9.20;99.90;;;;;;5071761;28;20044;-80
2023/10/17 07:16:04;;;;;;;;;;;9.40;99.90;;;;;;5055596;28;20072;-82
2023/10/17 07:18:47;;;;;;;39.42;26.83;;;9.40;99.90;;;;;;5054743;28;19915;-78
2023/10/17 07:21:17;;;;;;;34.78;26.00;;;9.50;99.90;;;;;;5034888;28;20103;-78
2023/10/17 07:23:45;;;;;;;40.08;26.77;;;9.80;99.90;;;;;;5051405;28;20499;-79
2023/10/17 07:28:52;;;;;;;41.17;27.92;;;9.80;99.90;;;;;;5074051;28;20514;-81
2023/10/17 07:31:22;;;;;;;38.85;26.38;;;9.90;99.90;;;;;;5071671;28;20024;-80
2023/10/17 07:34:16;;;;;;;36.78;25.77;;;10.10;99.90;;;;;;5110309;28;20035;-80
2023/10/17 07:36:44;;;;;;;36.35;24.50;;;10.20;99.90;;;;;;5106076;28;20134;-81
2023/10/17 07:39:23;;;;;;;35.47;26.15;;;10.30;99.90;;;;;;5115432;27;20539;-77
2023/10/17 07:41:53;;;;;;;42.88;27.33;;;10.40;99.90;;;;;;5102182;28;20390;-78
2023/10/17 07:44:25;;;;;;;37.38;25.67;;;10.60;99.90;;;;;;5113936;27;20046;-77
2023/10/17 07:49:30;;;;;;;34.30;26.23;;;10.70;99.90;;;;;;5115189;28;20387;-79
2023/10/17 07:51:58;;;;;;;37.63;25.50;;;10.70;99.90;;;;;;5105411;28;20031;-80
2023/10/17 07:54:28;;;;;;;35.95;24.80;;;10.80;99.90;;;;;;5098618;28;20076;-78
2023/10/17 07:56:58;;;;;;;35.38;23.85;;;11.00;99.90;;;;;;5115735;27;20038;-80
2023/10/17 07:59:30;;;;;;;38.63;24.70;;;11.00;99.90;;;;;;5109914;28;20027;-82
2023/10/17 08:02:00;;;;;;;36.33;24.08;;;10.90;99.90;;;;;;5095155;28;20027;-79
2023/10/17 08:04:33;;;;;;;37.08;26.23;;;11.00;99.90;;;;;;5114923;28;20104;-82
2023/10/17 08:06:59;;;;;;;35.90;23.40;;;10.90;99.90;;;;;;5104319;28;20039;-82
2023/10/17 08:09:35;;;;;;;39.50;29.90;;;10.90;99.90;;;;;;5114535;28;20024;-82
2023/10/17 08:12:05;;;;;;;36.60;27.10;;;11.00;99.90;;;;;;5102780;28;20028;-80
2023/10/17 08:14:40;;;;;;;40.47;28.92;;;11.10;99.90;;;;;;5101045;28;20019;-83
2023/10/17 08:17:08;;;;;;;34.70;24.80;;;11.30;99.90;;;;;;5115351;28;20040;-78
2023/10/17 08:22:20;;;;;;;33.50;23.50;;;11.40;99.90;;;;;;5106792;28;20027;-81
2023/10/17 08:24:51;;;;;;;34.60;23.13;;;11.30;99.90;;;;;;5105102;28;20069;-76
2023/10/17 08:30:14;;;;;;;40.17;22.63;;;11.50;99.90;;;;;;5104840;28;20032;-77
2023/10/17 08:32:47;;;;;;;32.42;21.98;;;11.60;99.90;;;;;;5102248;28;20019;-76
2023/10/17 08:35:20;;;;;;;30.30;21.15;;;11.60;99.90;;;;;;5114621;28;20054;-78
2023/10/17 08:37:47;;;;;;;28.70;21.58;;;11.50;99.90;;;;;;5114525;28;20023;-77
2023/10/17 08:40:29;;;;;;;31.58;20.08;;;11.60;99.90;;;;;;5114312;28;20016;-76
2023/10/17 08:43:06;;;;;;;30.13;21.55;;;11.70;99.90;;;;;;5112283;28;20026;-73
2023/10/17 08:45:38;;;;;;;31.05;21.70;;;11.80;99.90;;;;;;5112768;28;20074;-81
2023/10/17 08:48:11;;;;;;;33.03;22.92;;;11.80;99.90;;;;;;5114302;28;20508;-81
2023/10/17 08:50:39;;;;;;;32.33;26.13;;;11.80;99.90;;;;;;5094273;28;20090;-82
2023/10/17 08:55:44;;;;;;;44.50;30.63;;;11.80;99.90;;;;;;5101514;28;20043;-82
2023/10/17 08:58:10;;;;;;;36.03;26.90;;;12.00;99.90;;;;;;5114362;28;20081;-76
2023/10/17 09:03:31;;;;;;;23.70;16.80;;;12.20;99.90;;;;;;5110065;28;20047;-81
2023/10/17 09:06:07;;;;;;;24.58;15.80;;;12.10;99.90;;;;;;5114158;28;20103;-80
2023/10/17 09:08:55;;;;;;;24.35;16.63;;;12.10;99.90;;;;;;5112298;28;20044;-79
2023/10/17 09:11:33;;;;;;;26.00;17.73;;;12.30;99.90;;;;;;5102109;28;20019;-81
2023/10/17 09:14:17;;;;;;;25.30;15.82;;;12.40;99.90;;;;;;5106412;28;20038;-76
2023/10/17 09:17:13;;;;;;;19.80;13.48;;;12.30;99.90;;;;;;5105758;28;20106;-82
2023/10/17 09:19:46;;;;;;;23.90;13.65;;;12.20;99.90;;;;;;5107802;28;20024;-75
2023/10/17 09:22:15;;;;;;;23.05;13.70;;;12.30;99.90;;;;;;5112039;28;20070;-75
2023/10/17 09:24:45;;;;;;;23.48;13.82;;;12.40;99.90;;;;;;5100785;28;20024;-81
2023/10/17 09:27:15;;;;;;;21.73;13.13;;;12.50;99.90;;;;;;5093313;28;20032;-81
2023/10/17 09:29:51;;;;;;;17.83;11.25;;;12.50;99.90;;;;;;5101982;28;20038;-75
2023/10/17 09:32:33;;;;;;;21.92;9.77;;;12.60;99.90;;;;;;5110174;28;20031;-78
2023/10/17 09:35:15;;;;;;;18.50;11.00;;;12.50;99.90;;;;;;5103880;28;20032;-80
2023/10/17 09:37:43;;;;;;;18.70;10.48;;;12.60;99.90;;;;;;5100931;28;20027;-81
2023/10/17 09:40:14;;;;;;;16.02;10.35;;;12.50;99.90;;;;;;5099696;28;20036;-79
2023/10/17 09:42:45;;;;;;;18.48;10.15;;;12.30;99.90;;;;;;5105173;28;20078;-77
2023/10/17 09:45:12;;;;;;;18.77;11.68;;;12.30;99.90;;;;;;5095311;28;20074;-78
2023/10/17 09:47:46;;;;;;;24.63;15.82;;;12.40;99.90;;;;;;5113189;28;20032;-77
2023/10/17 09:50:16;;;;;;;23.13;15.25;;;12.50;99.90;;;;;;5095588;28;20110;-78
2023/10/17 09:52:45;;;;;;;18.30;13.02;;;12.50;99.90;;;;;;5092820;28;20538;-79
2023/10/17 09:55:16;;;;;;;24.52;15.68;;;12.30;99.90;;;;;;5111031;28;20055;-78
2023/10/17 09:57:47;;;;;;;22.65;16.88;;;12.70;99.90;;;;;;5112686;28;20044;-75
2023/10/17 10:00:25;;;;;;;28.13;17.20;;;12.90;99.90;;;;;;5105420;28;20471;-75
2023/10/17 10:02:53;;;;;;;19.27;13.07;;;13.10;99.90;;;;;;5106193;28;20133;-76
2023/10/17 10:05:24;;;;;;;19.40;11.73;;;13.00;99.90;;;;;;5097417;28;20131;-80
2023/10/17 10:07:52;;;;;;;17.65;9.43;;;13.00;99.90;;;;;;5101866;28;20103;-79
2023/10/17 10:10:46;;;;;;;15.60;9.05;;;13.10;99.90;;;;;;5102932;28;20053;-77
2023/10/17 10:13:15;;;;;;;21.83;9.63;;;13.20;99.90;;;;;;5108093;28;20106;-77
2023/10/17 10:16:01;;;;;;;15.30;9.65;;;13.30;99.90;;;;;;5101619;28;20035;-79
2023/10/17 10:18:47;;;;;;;15.40;10.00;;;13.50;99.90;;;;;;5098881;28;20054;-79
2023/10/17 10:21:13;;;;;;;15.93;9.38;;;13.70;99.90;;;;;;5083464;28;20089;-77
2023/10/17 10:23:40;;;;;;;16.65;9.10;;;13.30;99.30;;;;;;5110215;28;20059;-76
2023/10/17 10:26:11;;;;;;;18.88;9.45;;;13.30;99.00;;;;;;5112564;28;20031;-79
2023/10/17 10:28:41;;;;;;;14.82;9.52;;;13.40;99.40;;;;;;5106088;28;20029;-79
2023/10/17 10:31:22;;;;;;;15.15;10.05;;;13.50;99.20;;;;;;5106380;28;20080;-80
2023/10/17 10:33:49;;;;;;;17.90;9.48;;;13.20;99.20;;;;;;5101269;28;20019;-78
2023/10/17 10:36:25;;;;;;;15.55;9.75;;;13.30;99.10;;;;;;5111799;28;20028;-76
2023/10/17 10:38:54;;;;;;;17.73;9.75;;;13.40;99.60;;;;;;5112326;28;20026;-80
2023/10/17 10:41:22;;;;;;;14.52;8.88;;;13.80;99.90;;;;;;5101061;28;20475;-76
2023/10/17 10:43:58;;;;;;;16.10;8.90;;;14.00;99.00;;;;;;5112279;28;20054;-76
2023/10/17 10:46:24;;;;;;;13.50;7.20;;;13.80;97.70;;;;;;5111774;28;20046;-80
2023/10/17 10:48:53;;;;;;;9.70;5.63;;;13.80;96.20;;;;;;5099799;28;20464;-77
2023/10/17 10:51:24;;;;;;;13.13;6.25;;;13.50;95.90;;;;;;5092757;28;20467;-78
2023/10/17 10:53:58;;;;;;;11.50;7.13;;;13.50;96.20;;;;;;5106690;28;20035;-80
2023/10/17 10:56:27;;;;;;;12.95;6.82;;;13.50;96.60;;;;;;5092078;28;20036;-77
2023/10/17 10:58:57;;;;;;;15.52;6.72;;;13.50;97.20;;;;;;5110936;28;20109;-78
2023/10/17 11:01:28;;;;;;;12.82;6.53;;;13.50;95.60;;;;;;5096861;28;20464;-78
2023/10/17 11:03:53;;;;;;;9.93;5.75;;;13.50;95.40;;;;;;5103695;28;20016;-79
2023/10/17 11:06:24;;;;;;;10.88;6.65;;;13.50;95.50;;;;;;5116745;28;20027;-79
2023/10/17 11:08:51;;;;;;;10.45;5.68;;;13.70;96.10;;;;;;5108358;28;20032;-80
2023/10/17 11:11:19;;;;;;;12.98;6.72;;;13.60;94.70;;;;;;5111785;28;20024;-79
2023/10/17 11:13:52;;;;;;;9.85;5.63;;;13.70;95.40;;;;;;5107839;28;20028;-76
2023/10/17 11:16:21;;;;;;;10.50;5.72;;;13.60;94.60;;;;;;5114881;28;20097;-76
2023/10/17 11:18:48;;;;;;;15.98;6.55;;;13.80;95.70;;;;;;5112656;28;20023;-76
2023/10/17 11:21:17;;;;;;;17.00;6.30;;;14.00;95.70;;;;;;5110105;28;20076;-77
2023/10/17 11:23:50;;;;;;;11.52;6.50;;;13.70;94.10;;;;;;5106454;28;20031;-78
2023/10/17 11:26:21;;;;;;;11.02;6.05;;;13.60;94.80;;;;;;5103526;28;20028;-78
2023/10/17 11:28:47;;;;;;;12.23;6.70;;;13.40;94.50;;;;;;5099992;28;20020;-76
2023/10/17 11:31:21;;;;;;;14.38;7.43;;;13.40;95.30;;;;;;5097720;28;20027;-77
2023/10/17 11:33:59;;;;;;;19.02;6.10;;;13.50;95.60;;;;;;5102213;28;20463;-79
2023/10/17 11:36:37;;;;;;;13.43;6.82;;;13.50;94.40;;;;;;5099452;27;20026;-79
2023/10/17 11:39:05;;;;;;;13.32;6.78;;;13.40;94.60;;;;;;5111572;28;20081;-80
2023/10/17 11:41:39;;;;;;;10.23;6.38;;;13.50;94.90;;;;;;5115475;28;20099;-76
2023/10/17 11:44:09;;;;;;;11.60;6.43;;;13.50;94.60;;;;;;5115101;28;20063;-77
2023/10/17 11:46:37;;;;;;;12.45;5.53;;;13.70;94.90;;;;;;5115536;27;20039;-75
2023/10/17 11:49:27;;;;;;;9.13;5.55;;;13.90;95.20;;;;;;5114461;28;20431;-77
2023/10/17 11:51:59;;;;;;;10.07;5.18;;;13.70;93.40;;;;;;5094857;28;20024;-75
2023/10/17 11:54:26;;;;;;;10.23;5.68;;;13.80;92.80;;;;;;5103428;28;20028;-76
2023/10/17 11:57:08;;;;;;;10.77;5.63;;;13.90;93.40;;;;;;5108361;28;20111;-76
2023/10/17 11:59:34;;;;;;;10.30;5.15;;;13.80;93.30;;;;;;5112613;28;20031;-77
2023/10/17 12:02:03;;;;;;;9.45;5.13;;;13.90;93.60;;;;;;5101466;28;20023;-76
2023/10/17 12:04:30;;;;;;;8.93;4.68;;;13.80;92.10;;;;;;5104119;28;20024;-76
2023/10/17 12:06:56;;;;;;;9.27;4.47;;;14.00;93.30;;;;;;5102769;28;20368;-77
2023/10/17 12:11:50;;;;;;;7.35;4.28;;;14.10;91.40;;;;;;5115370;28;20057;-76
2023/10/17 12:14:20;;;;;;;12.95;5.03;;;14.20;91.30;;;;;;5114088;28;20026;-80
2023/10/17 12:16:58;;;;;;;9.30;4.70;;;14.20;91.20;;;;;;5115246;28;20535;-78
2023/10/17 12:19:28;;;;;;;8.38;4.68;;;14.30;92.30;;;;;;5101274;28;20062;-79
2023/10/17 12:21:55;;;;;;;8.43;5.30;;;14.30;92.40;;;;;;5100926;28;20397;-78
2023/10/17 12:24:56;;;;;;;14.13;5.50;;;14.30;92.70;;;;;;5094597;28;20118;-78
2023/10/17 12:27:14;;;;;;;10.23;5.22;;;14.40;91.70;;;;;;5096580;28;20478;-79
2023/10/17 12:29:41;;;;;;;12.00;4.72;;;14.20;91.50;;;;;;5103732;28;20103;-79
2023/10/17 12:32:10;;;;;;;9.65;5.05;;;14.20;92.60;;;;;;5094245;28;20032;-76
2023/10/17 12:34:39;;;;;;;9.75;5.80;;;14.30;92.70;;;;;;5106066;28;20016;-80
2023/10/17 12:37:09;;;;;;;10.02;5.57;;;14.30;92.20;;;;;;5095557;28;20135;-78
2023/10/17 12:39:35;;;;;;;9.00;5.00;;;14.40;92.50;;;;;;5094110;28;20056;-77
2023/10/17 12:42:00;;;;;;;10.15;4.88;;;14.40;91.70;;;;;;5100174;28;20435;-78
2023/10/17 12:44:27;;;;;;;11.55;5.57;;;14.50;92.30;;;;;;5114353;28;20036;-80
2023/10/17 12:46:53;;;;;;;19.35;5.88;;;14.60;93.30;;;;;;5094786;28;20391;-76
2023/10/17 12:49:19;;;;;;;11.20;4.82;;;14.50;91.60;;;;;;5094091;28;20020;-77
2023/10/17 12:51:47;;;;;;;12.32;5.55;;;14.40;91.80;;;;;;5114039;28;20012;-78
2023/10/17 12:54:13;;;;;;;7.93;5.22;;;14.40;91.90;;;;;;5114521;28;20023;-79
2023/10/17 12:56:39;;;;;;;9.95;4.90;;;14.50;91.30;;;;;;5100442;28;20011;-80
2023/10/17 12:59:07;;;;;;;7.00;4.18;;;14.50;91.80;;;;;;5114394;28;20039;-80
2023/10/17 13:01:32;;;;;;;9.07;4.93;;;14.50;91.00;;;;;;5107445;28;20528;-76
2023/10/17 13:03:58;;;;;;;12.68;5.43;;;14.40;91.10;;;;;;5094103;28;20028;-77
2023/10/17 13:06:25;;;;;;;10.35;5.05;;;14.30;90.20;;;;;;5099794;28;20023;-79
2023/10/17 13:08:57;;;;;;;11.88;5.63;;;14.10;90.10;;;;;;5100927;28;20546;-76
2023/10/17 13:11:27;;;;;;;9.05;4.60;;;14.10;90.10;;;;;;5093808;28;20028;-79
2023/10/17 13:13:54;;;;;;;8.38;4.43;;;14.30;90.70;;;;;;5094775;28;20652;-77
2023/10/17 13:16:23;;;;;;;13.07;5.00;;;14.30;90.60;;;;;;5112992;28;20026;-77
2023/10/17 13:18:50;;;;;;;13.40;4.40;;;14.40;90.60;;;;;;5112659;28;20030;-79
2023/10/17 13:21:17;;;;;;;8.65;4.60;;;14.40;90.50;;;;;;5105440;28;20032;-79
2023/10/17 13:23:46;;;;;;;9.43;4.22;;;14.50;90.60;;;;;;5108983;28;20024;-76
2023/10/17 13:26:17;;;;;;;7.28;4.28;;;14.40;89.70;;;;;;5112996;28;20032;-79
2023/10/17 13:28:43;;;;;;;5.75;3.15;;;14.40;88.30;;;;;;5113331;28;20024;-78
2023/10/17 13:31:16;;;;;;;9.52;5.13;;;14.40;88.80;;;;;;5113571;28;20100;-78
2023/10/17 13:33:43;;;;;;;7.85;3.40;;;14.40;89.40;;;;;;5109065;28;20399;-78
2023/10/17 13:36:16;;;;;;;8.07;4.38;;;14.40;88.60;;;;;;5093326;28;20020;-77
2023/10/17 13:38:43;;;;;;;5.47;3.30;;;14.30;88.70;;;;;;5112468;28;20386;-80
2023/10/17 13:41:09;;;;;;;14.68;6.97;;;14.40;89.10;;;;;;5099397;28;20062;-80
2023/10/17 13:43:36;;;;;;;11.65;4.38;;;14.50;89.10;;;;;;5112797;28;20098;-77
2023/10/17 13:46:16;;;;;;;7.10;3.95;;;14.40;85.90;;;;;;5100467;28;20050;-78
2023/10/17 13:48:49;;;;;;;7.68;4.18;;;14.30;86.20;;;;;;5101304;28;20439;-79
2023/10/17 13:51:16;;;;;;;9.23;4.68;;;14.30;87.10;;;;;;5113830;28;20089;-81
2023/10/17 13:53:44;;;;;;;8.50;4.50;;;14.30;85.90;;;;;;5103316;28;20024;-77
2023/10/17 13:56:14;;;;;;;8.25;3.70;;;14.30;87.10;;;;;;5092738;28;20079;-76
2023/10/17 13:58:41;;;;;;;8.20;3.60;;;14.20;85.30;;;;;;5092901;28;20024;-79
2023/10/17 14:03:56;;;;;;;7.57;3.15;;;14.40;86.30;;;;;;5092891;28;20115;-79
2023/10/17 14:06:23;;;;;;;6.22;3.15;;;14.30;84.50;;;;;;5111796;28;20027;-79
2023/10/17 14:08:50;;;;;;;12.57;3.85;;;14.40;85.20;;;;;;5113009;28;20443;-77
2023/10/17 14:11:18;;;;;;;8.00;4.30;;;14.30;83.50;;;;;;5106861;27;20020;-78
2023/10/17 14:13:46;;;;;;;7.18;3.72;;;14.40;85.50;;;;;;5093976;28;20035;-79
2023/10/17 14:16:13;;;;;;;8.15;3.50;;;14.40;84.10;;;;;;5099435;28;20037;-76
2023/10/17 14:18:46;;;;;;;10.18;3.78;;;14.30;83.80;;;;;;5112815;28;20644;-77
2023/10/17 14:23:57;;;;;;;7.28;3.67;;;14.20;84.50;;;;;;5122355;27;20035;-77
2023/10/17 14:26:27;;;;;;;10.25;3.65;;;14.30;83.70;;;;;;5102124;28;20041;-79
2023/10/17 14:28:56;;;;;;;9.48;4.45;;;14.20;82.70;;;;;;5110770;28;20107;-78
2023/10/17 14:31:25;;;;;;;5.60;3.33;;;14.20;83.10;;;;;;5108950;28;20020;-77
2023/10/17 14:33:52;;;;;;;10.68;3.65;;;14.20;83.70;;;;;;5108956;27;20027;-77
2023/10/17 14:36:21;;;;;;;5.28;3.00;;;14.20;82.10;;;;;;5103872;27;20485;-79
2023/10/17 14:38:49;;;;;;;6.90;3.60;;;14.20;81.00;;;;;;5124347;27;20383;-78
2023/10/17 14:41:15;;;;;;;7.43;3.38;;;14.10;82.30;;;;;;5116709;27;20027;-77
2023/10/17 14:43:49;;;;;;;6.82;3.90;;;14.20;84.50;;;;;;5120473;27;20031;-78
2023/10/17 14:46:16;;;;;;;9.55;3.20;;;14.20;83.80;;;;;;5103136;28;20073;-76
2023/10/17 14:48:47;;;;;;;7.85;4.40;;;14.20;82.30;;;;;;5125244;27;20051;-77
2023/10/17 14:51:14;;;;;;;8.02;3.80;;;14.20;81.60;;;;;;5114154;27;20027;-76
2023/10/17 14:53:42;;;;;;;6.95;4.00;;;14.10;82.40;;;;;;5113180;28;20095;-76
2023/10/17 14:56:14;;;;;;;12.25;4.88;;;14.10;83.60;;;;;;5112291;28;20386;-76
2023/10/17 14:58:51;;;;;;;11.70;5.03;;;13.90;82.80;;;;;;5112021;28;20467;-76
2023/10/17 15:01:17;;;;;;;11.10;5.43;;;14.00;85.00;;;;;;5112042;28;20031;-75
2023/10/17 15:03:48;;;;;;;9.32;4.63;;;13.80;84.80;;;;;;5097099;28;20073;-78
2023/10/17 15:06:14;;;;;;;7.03;3.67;;;13.80;83.40;;;;;;5116857;28;20038;-75
2023/10/17 15:08:41;;;;;;;10.23;4.57;;;13.80;84.50;;;;;;5120026;27;20463;-75
2023/10/17 15:11:10;;;;;;;14.10;6.90;;;13.70;84.90;;;;;;5132311;28;20038;-77
2023/10/17 15:13:37;;;;;;;10.20;5.00;;;13.60;85.40;;;;;;5105882;28;20011;-79
2023/10/17 15:16:12;;;;;;;16.27;7.45;;;13.50;84.50;;;;;;5117824;27;20106;-76
2023/10/17 15:18:38;;;;;;;11.80;5.57;;;13.40;86.60;;;;;;5118801;28;20047;-75
2023/10/17 15:21:13;;;;;;;8.90;4.80;;;13.40;86.20;;;;;;5121660;28;20054;-76
2023/10/17 15:23:46;;;;;;;53.35;11.63;;;13.20;85.70;;;;;;5128983;28;20137;-78
2023/10/17 15:26:11;;;;;;;9.95;4.53;;;13.10;87.20;;;;;;5114761;27;20491;-78
2023/10/17 15:28:44;;;;;;;8.18;4.32;;;13.10;85.80;;;;;;5128488;28;20035;-76
2023/10/17 15:31:10;;;;;;;;;;;13.00;87.40;;;;;;5119377;27;20501;-74
2023/10/17 15:33:37;;;;;;;17.83;7.97;;;12.90;86.90;;;;;;5119401;27;19960;-75
2023/10/17 15:36:04;;;;;;;15.05;6.63;;;12.80;87.30;;;;;;5125435;28;20106;-80
2023/10/17 15:38:32;;;;;;;12.57;6.35;;;12.70;87.70;;;;;;5124796;28;20145;-77
2023/10/17 15:40:59;;;;;;;17.23;7.32;;;12.60;88.70;;;;;;5118710;27;20015;-79
2023/10/17 15:43:26;;;;;;;16.42;7.25;;;12.60;89.20;;;;;;5118850;27;20024;-79